sensor_id;sensor_type;location;lat;lon;timestamp;temperature;humidity
42867;DHT22;39461;40.948;73.006;2022-08-14T00:00:38;23.30;68.00
42867;DHT22;39461;40.948;73.006;2022-08-14T00:03:25;23.30;67.90
42867;DHT22;39461;40.948;73.006;2022-08-14T00:06:00;23.30;67.80
42867;DHT22;39461;40.948;73.006;2022-08-14T00:08:33;23.30;67.90
42867;DHT22;39461;40.948;73.006;2022-08-14T00:11:06;23.30;67.90
42867;DHT22;39461;40.948;73.006;2022-08-14T00:13:39;23.30;67.70
42867;DHT22;39461;40.948;73.006;2022-08-14T00:16:12;23.30;68.00
42867;DHT22;39461;40.948;73.006;2022-08-14T00:18:45;23.20;67.80
42867;DHT22;39461;40.948;73.006;2022-08-14T00:21:18;23.20;68.10
42867;DHT22;39461;40.948;73.006;2022-08-14T00:23:57;23.20;68.30
42867;DHT22;39461;40.948;73.006;2022-08-14T00:26:30;23.10;68.40
42867;DHT22;39461;40.948;73.006;2022-08-14T00:29:03;23.20;68.30
42867;DHT22;39461;40.948;73.006;2022-08-14T00:31:36;23.10;68.40
42867;DHT22;39461;40.948;73.006;2022-08-14T00:34:09;23.20;68.40
42867;DHT22;39461;40.948;73.006;2022-08-14T00:36:42;23.10;68.50
42867;DHT22;39461;40.948;73.006;2022-08-14T00:39:12;23.10;68.50
42867;DHT22;39461;40.948;73.006;2022-08-14T00:41:46;23.00;68.50
42867;DHT22;39461;40.948;73.006;2022-08-14T00:44:21;23.10;68.50
42867;DHT22;39461;40.948;73.006;2022-08-14T00:46:48;23.00;68.50
42867;DHT22;39461;40.948;73.006;2022-08-14T00:49:21;23.00;68.70
42867;DHT22;39461;40.948;73.006;2022-08-14T00:51:54;23.00;68.60
42867;DHT22;39461;40.948;73.006;2022-08-14T00:54:33;23.00;68.60
42867;DHT22;39461;40.948;73.006;2022-08-14T00:57:10;23.10;68.50
42867;DHT22;39461;40.948;73.006;2022-08-14T00:59:49;23.00;68.50
42867;DHT22;39461;40.948;73.006;2022-08-14T01:02:23;23.00;68.80
42867;DHT22;39461;40.948;73.006;2022-08-14T01:05:04;23.00;68.90
42867;DHT22;39461;40.948;73.006;2022-08-14T01:07:40;23.10;68.80
42867;DHT22;39461;40.948;73.006;2022-08-14T01:10:14;23.10;68.60
42867;DHT22;39461;40.948;73.006;2022-08-14T01:12:49;23.10;68.60
42867;DHT22;39461;40.948;73.006;2022-08-14T01:15:22;23.20;68.50
42867;DHT22;39461;40.948;73.006;2022-08-14T01:17:55;23.30;68.20
42867;DHT22;39461;40.948;73.006;2022-08-14T01:20:48;23.30;68.30
42867;DHT22;39461;40.948;73.006;2022-08-14T01:23:47;23.40;68.10
42867;DHT22;39461;40.948;73.006;2022-08-14T01:26:25;23.40;68.00
42867;DHT22;39461;40.948;73.006;2022-08-14T01:29:01;23.60;67.60
42867;DHT22;39461;40.948;73.006;2022-08-14T01:31:38;23.50;67.40
42867;DHT22;39461;40.948;73.006;2022-08-14T01:34:25;23.70;67.70
42867;DHT22;39461;40.948;73.006;2022-08-14T01:37:00;23.80;67.50
42867;DHT22;39461;40.948;73.006;2022-08-14T01:39:36;23.90;67.40
42867;DHT22;39461;40.948;73.006;2022-08-14T01:42:09;23.90;67.10
42867;DHT22;39461;40.948;73.006;2022-08-14T01:44:43;24.00;67.00
42867;DHT22;39461;40.948;73.006;2022-08-14T01:47:16;24.10;66.90
42867;DHT22;39461;40.948;73.006;2022-08-14T01:49:51;24.20;67.10
42867;DHT22;39461;40.948;73.006;2022-08-14T01:52:31;24.40;67.10
42867;DHT22;39461;40.948;73.006;2022-08-14T01:54:59;24.50;67.40
42867;DHT22;39461;40.948;73.006;2022-08-14T01:57:34;24.60;67.30
42867;DHT22;39461;40.948;73.006;2022-08-14T02:00:11;24.70;67.20
42867;DHT22;39461;40.948;73.006;2022-08-14T02:02:47;24.80;67.10
42867;DHT22;39461;40.948;73.006;2022-08-14T02:05:24;24.90;66.90
42867;DHT22;39461;40.948;73.006;2022-08-14T02:08:00;25.00;66.60
42867;DHT22;39461;40.948;73.006;2022-08-14T02:10:34;25.00;66.60
42867;DHT22;39461;40.948;73.006;2022-08-14T02:13:08;25.10;66.50
42867;DHT22;39461;40.948;73.006;2022-08-14T02:15:43;25.20;66.70
42867;DHT22;39461;40.948;73.006;2022-08-14T02:18:22;25.40;67.10
42867;DHT22;39461;40.948;73.006;2022-08-14T02:20:49;25.50;66.50
42867;DHT22;39461;40.948;73.006;2022-08-14T02:23:22;25.50;66.80
42867;DHT22;39461;40.948;73.006;2022-08-14T02:25:55;25.50;66.90
42867;DHT22;39461;40.948;73.006;2022-08-14T02:28:28;25.60;66.80
42867;DHT22;39461;40.948;73.006;2022-08-14T02:31:03;25.70;67.00
42867;DHT22;39461;40.948;73.006;2022-08-14T02:33:40;25.80;66.90
42867;DHT22;39461;40.948;73.006;2022-08-14T02:36:14;26.00;67.10
42867;DHT22;39461;40.948;73.006;2022-08-14T02:38:48;26.20;66.70
42867;DHT22;39461;40.948;73.006;2022-08-14T02:41:23;26.30;67.20
42867;DHT22;39461;40.948;73.006;2022-08-14T02:43:56;26.50;67.50
42867;DHT22;39461;40.948;73.006;2022-08-14T02:46:38;26.60;66.40
42867;DHT22;39461;40.948;73.006;2022-08-14T02:49:16;26.70;66.20
42867;DHT22;39461;40.948;73.006;2022-08-14T02:51:50;26.80;66.30
42867;DHT22;39461;40.948;73.006;2022-08-14T02:54:24;27.00;66.40
42867;DHT22;39461;40.948;73.006;2022-08-14T02:56:53;27.10;66.30
42867;DHT22;39461;40.948;73.006;2022-08-14T02:59:27;27.20;66.30
42867;DHT22;39461;40.948;73.006;2022-08-14T03:02:02;27.40;66.50
42867;DHT22;39461;40.948;73.006;2022-08-14T03:04:35;27.50;66.00
42867;DHT22;39461;40.948;73.006;2022-08-14T03:07:08;27.60;65.30
42867;DHT22;39461;40.948;73.006;2022-08-14T03:09:41;27.70;65.70
42867;DHT22;39461;40.948;73.006;2022-08-14T03:12:14;27.80;65.30
42867;DHT22;39461;40.948;73.006;2022-08-14T03:14:47;27.90;65.30
42867;DHT22;39461;40.948;73.006;2022-08-14T03:17:22;28.00;64.40
42867;DHT22;39461;40.948;73.006;2022-08-14T03:19:55;28.10;64.20
42867;DHT22;39461;40.948;73.006;2022-08-14T03:22:28;28.20;63.80
42867;DHT22;39461;40.948;73.006;2022-08-14T03:25:01;28.30;64.30
42867;DHT22;39461;40.948;73.006;2022-08-14T03:27:36;28.30;64.20
42867;DHT22;39461;40.948;73.006;2022-08-14T03:30:09;28.50;64.50
42867;DHT22;39461;40.948;73.006;2022-08-14T03:32:43;28.60;63.70
42867;DHT22;39461;40.948;73.006;2022-08-14T03:35:16;28.70;63.00
42867;DHT22;39461;40.948;73.006;2022-08-14T03:37:50;28.70;62.80
42867;DHT22;39461;40.948;73.006;2022-08-14T03:40:24;28.80;62.60
42867;DHT22;39461;40.948;73.006;2022-08-14T03:42:57;29.00;62.80
42867;DHT22;39461;40.948;73.006;2022-08-14T03:45:31;29.10;63.00
42867;DHT22;39461;40.948;73.006;2022-08-14T03:48:16;29.20;61.30
42867;DHT22;39461;40.948;73.006;2022-08-14T03:50:52;29.30;61.90
42867;DHT22;39461;40.948;73.006;2022-08-14T03:53:21;29.40;61.60
42867;DHT22;39461;40.948;73.006;2022-08-14T03:55:56;29.50;61.20
42867;DHT22;39461;40.948;73.006;2022-08-14T03:58:38;29.50;60.60
42867;DHT22;39461;40.948;73.006;2022-08-14T04:01:15;29.60;60.50
42867;DHT22;39461;40.948;73.006;2022-08-14T04:03:53;29.60;60.80
42867;DHT22;39461;40.948;73.006;2022-08-14T04:06:26;29.70;60.60
42867;DHT22;39461;40.948;73.006;2022-08-14T04:09:01;29.80;60.60
42867;DHT22;39461;40.948;73.006;2022-08-14T04:11:35;29.80;60.30
42867;DHT22;39461;40.948;73.006;2022-08-14T04:14:08;29.80;60.00
42867;DHT22;39461;40.948;73.006;2022-08-14T04:16:41;29.90;60.10
42867;DHT22;39461;40.948;73.006;2022-08-14T04:19:19;30.00;60.60
42867;DHT22;39461;40.948;73.006;2022-08-14T04:21:55;30.00;60.70
42867;DHT22;39461;40.948;73.006;2022-08-14T04:24:29;30.00;60.90
42867;DHT22;39461;40.948;73.006;2022-08-14T04:27:02;30.00;60.20
42867;DHT22;39461;40.948;73.006;2022-08-14T04:29:40;30.10;60.20
42867;DHT22;39461;40.948;73.006;2022-08-14T04:32:14;30.20;60.10
42867;DHT22;39461;40.948;73.006;2022-08-14T04:34:47;30.20;60.30
42867;DHT22;39461;40.948;73.006;2022-08-14T04:37:21;30.30;60.10
42867;DHT22;39461;40.948;73.006;2022-08-14T04:40:13;30.40;60.00
42867;DHT22;39461;40.948;73.006;2022-08-14T04:43:11;30.50;59.70
42867;DHT22;39461;40.948;73.006;2022-08-14T04:45:56;30.50;60.40
42867;DHT22;39461;40.948;73.006;2022-08-14T04:48:30;30.50;60.00
42867;DHT22;39461;40.948;73.006;2022-08-14T04:51:08;30.70;60.20
42867;DHT22;39461;40.948;73.006;2022-08-14T04:53:44;30.80;59.70
42867;DHT22;39461;40.948;73.006;2022-08-14T04:56:20;30.90;60.20
42867;DHT22;39461;40.948;73.006;2022-08-14T04:58:58;30.90;59.40
42867;DHT22;39461;40.948;73.006;2022-08-14T05:01:31;30.90;59.90
42867;DHT22;39461;40.948;73.006;2022-08-14T05:04:04;30.90;59.50
42867;DHT22;39461;40.948;73.006;2022-08-14T05:06:38;30.80;59.50
42867;DHT22;39461;40.948;73.006;2022-08-14T05:09:11;30.80;59.50
42867;DHT22;39461;40.948;73.006;2022-08-14T05:11:38;30.80;59.60
42867;DHT22;39461;40.948;73.006;2022-08-14T05:14:11;30.90;59.90
42867;DHT22;39461;40.948;73.006;2022-08-14T05:16:38;30.90;60.00
42867;DHT22;39461;40.948;73.006;2022-08-14T05:19:09;30.90;60.40
42867;DHT22;39461;40.948;73.006;2022-08-14T05:21:45;31.00;60.10
42867;DHT22;39461;40.948;73.006;2022-08-14T05:24:20;31.10;59.70
42867;DHT22;39461;40.948;73.006;2022-08-14T05:26:55;31.00;59.70
42867;DHT22;39461;40.948;73.006;2022-08-14T05:29:30;31.20;60.70
42867;DHT22;39461;40.948;73.006;2022-08-14T05:32:10;31.30;61.20
42867;DHT22;39461;40.948;73.006;2022-08-14T05:34:43;31.30;60.90
42867;DHT22;39461;40.948;73.006;2022-08-14T05:37:10;31.40;60.70
42867;DHT22;39461;40.948;73.006;2022-08-14T05:39:44;31.30;60.30
42867;DHT22;39461;40.948;73.006;2022-08-14T05:42:17;31.20;60.50
42867;DHT22;39461;40.948;73.006;2022-08-14T05:44:50;31.30;60.50
42867;DHT22;39461;40.948;73.006;2022-08-14T05:47:23;31.20;60.40
42867;DHT22;39461;40.948;73.006;2022-08-14T05:49:57;31.30;60.70
42867;DHT22;39461;40.948;73.006;2022-08-14T05:52:29;31.40;60.20
42867;DHT22;39461;40.948;73.006;2022-08-14T05:54:56;31.50;60.80
42867;DHT22;39461;40.948;73.006;2022-08-14T05:57:29;31.60;61.20
42867;DHT22;39461;40.948;73.006;2022-08-14T06:00:09;31.60;59.80
42867;DHT22;39461;40.948;73.006;2022-08-14T06:02:48;31.60;61.20
42867;DHT22;39461;40.948;73.006;2022-08-14T06:05:22;31.60;60.90
42867;DHT22;39461;40.948;73.006;2022-08-14T06:07:56;31.70;60.80
42867;DHT22;39461;40.948;73.006;2022-08-14T06:10:31;31.70;60.30
42867;DHT22;39461;40.948;73.006;2022-08-14T06:13:00;31.80;60.10
42867;DHT22;39461;40.948;73.006;2022-08-14T06:15:34;31.80;59.90
42867;DHT22;39461;40.948;73.006;2022-08-14T06:18:09;31.80;59.50
42867;DHT22;39461;40.948;73.006;2022-08-14T06:20:37;31.90;60.00
42867;DHT22;39461;40.948;73.006;2022-08-14T06:23:10;31.90;60.60
42867;DHT22;39461;40.948;73.006;2022-08-14T06:25:45;32.00;62.20
42867;DHT22;39461;40.948;73.006;2022-08-14T06:28:20;32.00;61.60
42867;DHT22;39461;40.948;73.006;2022-08-14T06:30:54;32.10;60.90
42867;DHT22;39461;40.948;73.006;2022-08-14T06:33:27;32.00;60.10
42867;DHT22;39461;40.948;73.006;2022-08-14T06:36:07;32.10;60.60
42867;DHT22;39461;40.948;73.006;2022-08-14T06:38:40;32.10;60.30
42867;DHT22;39461;40.948;73.006;2022-08-14T06:41:13;32.20;60.40
42867;DHT22;39461;40.948;73.006;2022-08-14T06:43:44;32.30;60.30
42867;DHT22;39461;40.948;73.006;2022-08-14T06:46:19;32.30;60.90
42867;DHT22;39461;40.948;73.006;2022-08-14T06:48:52;32.40;61.70
42867;DHT22;39461;40.948;73.006;2022-08-14T06:51:25;32.40;61.90
42867;DHT22;39461;40.948;73.006;2022-08-14T06:53:51;32.40;61.40
42867;DHT22;39461;40.948;73.006;2022-08-14T06:56:24;32.50;61.70
42867;DHT22;39461;40.948;73.006;2022-08-14T06:58:59;32.30;62.00
42867;DHT22;39461;40.948;73.006;2022-08-14T07:01:32;32.30;61.80
42867;DHT22;39461;40.948;73.006;2022-08-14T07:04:23;32.30;61.40
42867;DHT22;39461;40.948;73.006;2022-08-14T07:07:14;32.40;60.10
42867;DHT22;39461;40.948;73.006;2022-08-14T07:09:47;32.40;60.40
42867;DHT22;39461;40.948;73.006;2022-08-14T07:12:21;32.50;60.50
42867;DHT22;39461;40.948;73.006;2022-08-14T07:14:55;32.50;60.70
42867;DHT22;39461;40.948;73.006;2022-08-14T07:17:22;32.60;60.40
42867;DHT22;39461;40.948;73.006;2022-08-14T07:19:55;32.60;61.70
42867;DHT22;39461;40.948;73.006;2022-08-14T07:22:36;32.50;62.10
42867;DHT22;39461;40.948;73.006;2022-08-14T07:25:09;32.40;61.60
42867;DHT22;39461;40.948;73.006;2022-08-14T07:27:42;32.40;62.00
42867;DHT22;39461;40.948;73.006;2022-08-14T07:30:15;32.40;60.90
42867;DHT22;39461;40.948;73.006;2022-08-14T07:32:43;32.50;60.70
42867;DHT22;39461;40.948;73.006;2022-08-14T07:35:16;32.50;60.60
42867;DHT22;39461;40.948;73.006;2022-08-14T07:37:49;32.70;59.50
42867;DHT22;39461;40.948;73.006;2022-08-14T07:40:22;32.80;61.10
42867;DHT22;39461;40.948;73.006;2022-08-14T07:42:58;32.90;61.40
42867;DHT22;39461;40.948;73.006;2022-08-14T07:45:33;32.80;60.40
42867;DHT22;39461;40.948;73.006;2022-08-14T07:48:06;32.90;60.60
42867;DHT22;39461;40.948;73.006;2022-08-14T07:50:39;33.00;60.70
42867;DHT22;39461;40.948;73.006;2022-08-14T07:53:08;33.00;59.90
42867;DHT22;39461;40.948;73.006;2022-08-14T07:55:41;33.10;59.50
42867;DHT22;39461;40.948;73.006;2022-08-14T07:58:15;33.10;59.60
42867;DHT22;39461;40.948;73.006;2022-08-14T08:00:53;33.00;60.20
42867;DHT22;39461;40.948;73.006;2022-08-14T08:03:26;33.00;61.50
42867;DHT22;39461;40.948;73.006;2022-08-14T08:06:01;33.10;61.50
42867;DHT22;39461;40.948;73.006;2022-08-14T08:08:34;33.20;61.00
42867;DHT22;39461;40.948;73.006;2022-08-14T08:11:07;33.20;59.10
42867;DHT22;39461;40.948;73.006;2022-08-14T08:13:42;33.30;59.70
42867;DHT22;39461;40.948;73.006;2022-08-14T08:16:16;33.30;59.50
42867;DHT22;39461;40.948;73.006;2022-08-14T08:18:48;33.30;57.90
42867;DHT22;39461;40.948;73.006;2022-08-14T08:21:22;33.30;56.50
42867;DHT22;39461;40.948;73.006;2022-08-14T08:23:55;33.30;56.70
42867;DHT22;39461;40.948;73.006;2022-08-14T08:26:29;33.40;56.60
42867;DHT22;39461;40.948;73.006;2022-08-14T08:29:03;33.40;56.60
42867;DHT22;39461;40.948;73.006;2022-08-14T08:31:49;33.50;57.50
42867;DHT22;39461;40.948;73.006;2022-08-14T08:34:22;33.50;57.20
42867;DHT22;39461;40.948;73.006;2022-08-14T08:36:57;33.60;57.30
42867;DHT22;39461;40.948;73.006;2022-08-14T08:39:46;33.60;57.70
42867;DHT22;39461;40.948;73.006;2022-08-14T08:42:25;33.60;57.60
42867;DHT22;39461;40.948;73.006;2022-08-14T08:45:06;33.60;57.70
42867;DHT22;39461;40.948;73.006;2022-08-14T08:47:39;33.70;57.70
42867;DHT22;39461;40.948;73.006;2022-08-14T08:50:30;33.80;57.70
42867;DHT22;39461;40.948;73.006;2022-08-14T08:53:06;33.90;57.20
42867;DHT22;39461;40.948;73.006;2022-08-14T08:55:41;33.90;57.90
42867;DHT22;39461;40.948;73.006;2022-08-14T08:58:17;33.90;58.00
42867;DHT22;39461;40.948;73.006;2022-08-14T09:00:53;33.90;58.60
42867;DHT22;39461;40.948;73.006;2022-08-14T09:03:28;33.90;59.70
42867;DHT22;39461;40.948;73.006;2022-08-14T09:06:03;33.90;58.60
42867;DHT22;39461;40.948;73.006;2022-08-14T09:08:37;34.10;60.00
42867;DHT22;39461;40.948;73.006;2022-08-14T09:11:10;34.00;59.50
42867;DHT22;39461;40.948;73.006;2022-08-14T09:13:43;34.10;59.70
42867;DHT22;39461;40.948;73.006;2022-08-14T09:16:21;34.10;59.50
42867;DHT22;39461;40.948;73.006;2022-08-14T09:18:51;34.00;59.10
42867;DHT22;39461;40.948;73.006;2022-08-14T09:21:24;34.00;58.80
42867;DHT22;39461;40.948;73.006;2022-08-14T09:23:58;34.10;58.80
42867;DHT22;39461;40.948;73.006;2022-08-14T09:26:31;34.00;58.30
42867;DHT22;39461;40.948;73.006;2022-08-14T09:29:05;33.90;58.30
42867;DHT22;39461;40.948;73.006;2022-08-14T09:31:47;34.10;57.80
42867;DHT22;39461;40.948;73.006;2022-08-14T09:40:04;34.10;56.90
42867;DHT22;39461;40.948;73.006;2022-08-14T09:48:14;34.10;56.20
42867;DHT22;39461;40.948;73.006;2022-08-14T09:50:52;34.10;56.40
42867;DHT22;39461;40.948;73.006;2022-08-14T09:53:38;34.10;56.60
42867;DHT22;39461;40.948;73.006;2022-08-14T09:56:16;34.20;55.90
42867;DHT22;39461;40.948;73.006;2022-08-14T09:58:49;34.20;56.30
42867;DHT22;39461;40.948;73.006;2022-08-14T10:01:23;34.10;55.10
42867;DHT22;39461;40.948;73.006;2022-08-14T10:04:00;34.20;56.00
42867;DHT22;39461;40.948;73.006;2022-08-14T10:06:58;34.20;56.10
42867;DHT22;39461;40.948;73.006;2022-08-14T10:09:48;34.20;56.80
42867;DHT22;39461;40.948;73.006;2022-08-14T10:12:23;34.10;56.60
42867;DHT22;39461;40.948;73.006;2022-08-14T10:15:08;34.10;56.50
42867;DHT22;39461;40.948;73.006;2022-08-14T10:17:47;34.10;56.30
42867;DHT22;39461;40.948;73.006;2022-08-14T10:20:32;34.00;57.40
42867;DHT22;39461;40.948;73.006;2022-08-14T10:23:16;33.90;57.10
42867;DHT22;39461;40.948;73.006;2022-08-14T10:25:56;33.90;57.60
42867;DHT22;39461;40.948;73.006;2022-08-14T10:28:44;34.00;58.90
42867;DHT22;39461;40.948;73.006;2022-08-14T10:31:27;34.10;58.60
42867;DHT22;39461;40.948;73.006;2022-08-14T10:34:06;34.00;58.70
42867;DHT22;39461;40.948;73.006;2022-08-14T10:36:46;33.90;59.00
42867;DHT22;39461;40.948;73.006;2022-08-14T10:39:22;33.90;58.10
42867;DHT22;39461;40.948;73.006;2022-08-14T10:42:02;33.90;58.10
42867;DHT22;39461;40.948;73.006;2022-08-14T10:44:42;34.00;58.60
42867;DHT22;39461;40.948;73.006;2022-08-14T10:47:17;34.00;59.00
42867;DHT22;39461;40.948;73.006;2022-08-14T10:49:58;33.90;59.00
42867;DHT22;39461;40.948;73.006;2022-08-14T10:52:27;33.80;58.90
42867;DHT22;39461;40.948;73.006;2022-08-14T10:55:08;33.80;58.40
42867;DHT22;39461;40.948;73.006;2022-08-14T10:58:02;33.80;58.70
42867;DHT22;39461;40.948;73.006;2022-08-14T11:00:37;33.70;58.50
42867;DHT22;39461;40.948;73.006;2022-08-14T11:03:13;33.60;58.30
42867;DHT22;39461;40.948;73.006;2022-08-14T11:05:50;33.60;58.40
42867;DHT22;39461;40.948;73.006;2022-08-14T11:08:32;33.60;58.20
42867;DHT22;39461;40.948;73.006;2022-08-14T11:11:05;33.50;58.40
42867;DHT22;39461;40.948;73.006;2022-08-14T11:13:41;33.60;58.40
42867;DHT22;39461;40.948;73.006;2022-08-14T11:16:17;33.50;58.00
42867;DHT22;39461;40.948;73.006;2022-08-14T11:18:46;33.50;58.70
42867;DHT22;39461;40.948;73.006;2022-08-14T11:21:20;33.50;57.50
42867;DHT22;39461;40.948;73.006;2022-08-14T11:23:55;33.60;57.40
42867;DHT22;39461;40.948;73.006;2022-08-14T11:26:29;33.50;57.70
42867;DHT22;39461;40.948;73.006;2022-08-14T11:29:02;33.50;57.20
42867;DHT22;39461;40.948;73.006;2022-08-14T11:31:37;33.50;57.30
42867;DHT22;39461;40.948;73.006;2022-08-14T11:34:10;33.40;57.50
42867;DHT22;39461;40.948;73.006;2022-08-14T11:36:46;33.40;57.20
42867;DHT22;39461;40.948;73.006;2022-08-14T11:39:20;33.20;57.60
42867;DHT22;39461;40.948;73.006;2022-08-14T11:41:59;33.20;58.00
42867;DHT22;39461;40.948;73.006;2022-08-14T11:44:36;33.20;57.40
42867;DHT22;39461;40.948;73.006;2022-08-14T11:47:11;33.20;57.90
42867;DHT22;39461;40.948;73.006;2022-08-14T11:49:52;33.20;57.30
42867;DHT22;39461;40.948;73.006;2022-08-14T11:52:35;33.20;57.70
42867;DHT22;39461;40.948;73.006;2022-08-14T11:55:08;33.20;57.70
42867;DHT22;39461;40.948;73.006;2022-08-14T11:57:43;33.20;58.00
42867;DHT22;39461;40.948;73.006;2022-08-14T12:00:17;33.20;58.30
42867;DHT22;39461;40.948;73.006;2022-08-14T12:02:54;33.10;58.30
42867;DHT22;39461;40.948;73.006;2022-08-14T12:05:29;33.00;58.90
42867;DHT22;39461;40.948;73.006;2022-08-14T12:07:58;32.90;59.00
42867;DHT22;39461;40.948;73.006;2022-08-14T12:10:33;33.00;58.20
42867;DHT22;39461;40.948;73.006;2022-08-14T12:13:28;32.90;57.80
42867;DHT22;39461;40.948;73.006;2022-08-14T12:16:06;32.90;58.40
42867;DHT22;39461;40.948;73.006;2022-08-14T12:18:47;32.90;58.70
42867;DHT22;39461;40.948;73.006;2022-08-14T12:21:23;32.90;58.50
42867;DHT22;39461;40.948;73.006;2022-08-14T12:24:05;32.80;59.30
42867;DHT22;39461;40.948;73.006;2022-08-14T12:26:38;32.70;59.60
42867;DHT22;39461;40.948;73.006;2022-08-14T12:29:20;32.70;60.30
42867;DHT22;39461;40.948;73.006;2022-08-14T12:32:02;32.70;61.00
42867;DHT22;39461;40.948;73.006;2022-08-14T12:34:38;32.70;61.20
42867;DHT22;39461;40.948;73.006;2022-08-14T12:37:13;32.70;61.90
42867;DHT22;39461;40.948;73.006;2022-08-14T12:39:46;32.60;62.20
42867;DHT22;39461;40.948;73.006;2022-08-14T12:42:19;32.60;61.90
42867;DHT22;39461;40.948;73.006;2022-08-14T12:44:55;32.50;62.70
42867;DHT22;39461;40.948;73.006;2022-08-14T12:47:31;32.50;63.00
42867;DHT22;39461;40.948;73.006;2022-08-14T12:50:05;32.40;63.00
42867;DHT22;39461;40.948;73.006;2022-08-14T12:52:39;32.30;63.60
42867;DHT22;39461;40.948;73.006;2022-08-14T12:55:17;32.30;64.00
42867;DHT22;39461;40.948;73.006;2022-08-14T12:57:52;32.20;64.40
42867;DHT22;39461;40.948;73.006;2022-08-14T13:00:26;32.20;64.50
42867;DHT22;39461;40.948;73.006;2022-08-14T13:03:08;32.10;63.40
42867;DHT22;39461;40.948;73.006;2022-08-14T13:05:41;32.10;63.90
42867;DHT22;39461;40.948;73.006;2022-08-14T13:08:14;32.10;64.00
42867;DHT22;39461;40.948;73.006;2022-08-14T13:10:55;32.00;64.80
42867;DHT22;39461;40.948;73.006;2022-08-14T13:13:31;31.90;65.30
42867;DHT22;39461;40.948;73.006;2022-08-14T13:16:07;31.90;65.60
42867;DHT22;39461;40.948;73.006;2022-08-14T13:18:47;31.90;65.50
42867;DHT22;39461;40.948;73.006;2022-08-14T13:21:15;31.80;66.20
42867;DHT22;39461;40.948;73.006;2022-08-14T13:23:49;31.80;65.70
42867;DHT22;39461;40.948;73.006;2022-08-14T13:26:18;31.70;66.00
42867;DHT22;39461;40.948;73.006;2022-08-14T13:28:52;31.70;66.20
42867;DHT22;39461;40.948;73.006;2022-08-14T13:31:29;31.70;66.40
42867;DHT22;39461;40.948;73.006;2022-08-14T13:34:05;31.60;66.20
42867;DHT22;39461;40.948;73.006;2022-08-14T13:36:40;31.60;66.20
42867;DHT22;39461;40.948;73.006;2022-08-14T13:39:16;31.60;66.70
42867;DHT22;39461;40.948;73.006;2022-08-14T13:41:52;31.50;66.90
42867;DHT22;39461;40.948;73.006;2022-08-14T13:44:27;31.50;66.80
42867;DHT22;39461;40.948;73.006;2022-08-14T13:47:02;31.40;67.20
42867;DHT22;39461;40.948;73.006;2022-08-14T13:49:32;31.40;67.60
42867;DHT22;39461;40.948;73.006;2022-08-14T13:52:07;31.40;69.90
42867;DHT22;39461;40.948;73.006;2022-08-14T13:54:38;31.30;70.20
42867;DHT22;39461;40.948;73.006;2022-08-14T13:57:14;31.30;70.00
42867;DHT22;39461;40.948;73.006;2022-08-14T13:59:49;31.20;69.40
42867;DHT22;39461;40.948;73.006;2022-08-14T14:02:23;31.10;69.90
42867;DHT22;39461;40.948;73.006;2022-08-14T14:05:00;31.10;69.10
42867;DHT22;39461;40.948;73.006;2022-08-14T14:07:35;31.00;69.20
42867;DHT22;39461;40.948;73.006;2022-08-14T14:10:11;31.00;69.50
42867;DHT22;39461;40.948;73.006;2022-08-14T14:12:48;30.90;69.60
42867;DHT22;39461;40.948;73.006;2022-08-14T14:15:21;30.80;70.80
42867;DHT22;39461;40.948;73.006;2022-08-14T14:17:55;30.80;72.50
42867;DHT22;39461;40.948;73.006;2022-08-14T14:20:29;30.60;72.00
42867;DHT22;39461;40.948;73.006;2022-08-14T14:23:02;30.50;72.70
42867;DHT22;39461;40.948;73.006;2022-08-14T14:25:31;30.50;72.40
42867;DHT22;39461;40.948;73.006;2022-08-14T14:28:04;30.50;71.50
42867;DHT22;39461;40.948;73.006;2022-08-14T14:30:38;30.40;71.10
42867;DHT22;39461;40.948;73.006;2022-08-14T14:33:13;30.40;71.90
42867;DHT22;39461;40.948;73.006;2022-08-14T14:35:47;30.20;72.10
42867;DHT22;39461;40.948;73.006;2022-08-14T14:38:20;30.20;71.60
42867;DHT22;39461;40.948;73.006;2022-08-14T14:40:56;30.10;73.00
42867;DHT22;39461;40.948;73.006;2022-08-14T14:43:33;30.10;73.20
42867;DHT22;39461;40.948;73.006;2022-08-14T14:46:01;30.00;73.10
42867;DHT22;39461;40.948;73.006;2022-08-14T14:48:29;29.90;73.20
42867;DHT22;39461;40.948;73.006;2022-08-14T14:51:02;29.90;72.70
42867;DHT22;39461;40.948;73.006;2022-08-14T14:53:39;29.90;72.80
42867;DHT22;39461;40.948;73.006;2022-08-14T14:56:13;29.80;73.30
42867;DHT22;39461;40.948;73.006;2022-08-14T14:58:46;29.80;72.70
42867;DHT22;39461;40.948;73.006;2022-08-14T15:01:19;29.70;73.90
42867;DHT22;39461;40.948;73.006;2022-08-14T15:03:55;29.70;73.00
42867;DHT22;39461;40.948;73.006;2022-08-14T15:06:30;29.70;72.70
42867;DHT22;39461;40.948;73.006;2022-08-14T15:09:07;29.70;72.90
42867;DHT22;39461;40.948;73.006;2022-08-14T15:11:40;29.70;73.30
42867;DHT22;39461;40.948;73.006;2022-08-14T15:14:14;29.60;73.30
42867;DHT22;39461;40.948;73.006;2022-08-14T15:16:47;29.60;73.50
42867;DHT22;39461;40.948;73.006;2022-08-14T15:19:20;29.50;73.60
42867;DHT22;39461;40.948;73.006;2022-08-14T15:21:54;29.50;73.60
42867;DHT22;39461;40.948;73.006;2022-08-14T15:24:28;29.40;73.80
42867;DHT22;39461;40.948;73.006;2022-08-14T15:26:57;29.40;74.20
42867;DHT22;39461;40.948;73.006;2022-08-14T15:29:31;29.30;74.50
42867;DHT22;39461;40.948;73.006;2022-08-14T15:32:10;29.20;74.50
42867;DHT22;39461;40.948;73.006;2022-08-14T15:34:51;29.20;74.60
42867;DHT22;39461;40.948;73.006;2022-08-14T15:37:24;29.10;74.30
42867;DHT22;39461;40.948;73.006;2022-08-14T15:39:57;29.00;74.30
42867;DHT22;39461;40.948;73.006;2022-08-14T15:42:33;29.00;74.30
42867;DHT22;39461;40.948;73.006;2022-08-14T15:45:09;29.00;74.20
42867;DHT22;39461;40.948;73.006;2022-08-14T15:47:44;28.90;74.00
42867;DHT22;39461;40.948;73.006;2022-08-14T15:50:17;28.80;74.10
42867;DHT22;39461;40.948;73.006;2022-08-14T15:52:49;28.80;74.00
42867;DHT22;39461;40.948;73.006;2022-08-14T15:55:18;28.70;73.60
42867;DHT22;39461;40.948;73.006;2022-08-14T15:57:53;28.60;72.80
42867;DHT22;39461;40.948;73.006;2022-08-14T16:00:29;28.60;71.30
42867;DHT22;39461;40.948;73.006;2022-08-14T16:03:21;28.60;70.70
42867;DHT22;39461;40.948;73.006;2022-08-14T16:05:54;28.50;70.60
42867;DHT22;39461;40.948;73.006;2022-08-14T16:08:27;28.50;70.50
42867;DHT22;39461;40.948;73.006;2022-08-14T16:11:07;28.30;70.30
42867;DHT22;39461;40.948;73.006;2022-08-14T16:13:40;28.30;69.90
42867;DHT22;39461;40.948;73.006;2022-08-14T16:16:25;28.30;70.00